PAF5320 RPUF-RPLL
Flight info
| Callsign | PAF5320 |
|---|---|
| Flight time | N/A |
| Altitude | 7000 |
| Route | OLIVA OLIVA1D |
| Aircraft | C208/L-SDFGR/C |
Departure
| Time | 2026-05-05 09:16 |
|---|---|
| Airport | Basa Air Base (RPUF) |
Arrival
| Time | N/A |
|---|---|
| Airport | Ninoy Aquino International Airport (RPLL) |
| Time | Latitude | Longitude | Altitude | Speed | Heading |
|---|---|---|---|---|---|
| 2026-05-05 09:16 | 14.84783 | 120.75211 | 7012 ft | 149 kts | 134° |
| 2026-05-05 09:16 | 14.84035 | 120.75940 | 7011 ft | 149 kts | 133° |
| 2026-05-05 09:17 | 14.83278 | 120.76686 | 7013 ft | 151 kts | 134° |
| 2026-05-05 09:17 | 14.82494 | 120.77423 | 7007 ft | 151 kts | 134° |
| 2026-05-05 09:17 | 14.81730 | 120.78171 | 7000 ft | 150 kts | 134° |
| 2026-05-05 09:17 | 14.80961 | 120.78893 | 7001 ft | 148 kts | 135° |
| 2026-05-05 09:18 | 14.80215 | 120.79630 | 7000 ft | 148 kts | 133° |
| 2026-05-05 09:18 | 14.79462 | 120.80369 | 7001 ft | 150 kts | 135° |
| 2026-05-05 09:18 | 14.78700 | 120.81079 | 7004 ft | 149 kts | 135° |
| 2026-05-05 09:18 | 14.77941 | 120.81811 | 6999 ft | 149 kts | 135° |
| 2026-05-05 09:19 | 14.77428 | 120.82304 | 7001 ft | 150 kts | 133° |
| 2026-05-05 09:19 | 14.76424 | 120.83287 | 7006 ft | 151 kts | 135° |
| 2026-05-05 09:19 | 14.75659 | 120.84017 | 7000 ft | 148 kts | 134° |
| 2026-05-05 09:19 | 14.74909 | 120.84745 | 7002 ft | 148 kts | 134° |
| 2026-05-05 09:20 | 14.74153 | 120.85474 | 7000 ft | 149 kts | 134° |
| 2026-05-05 09:20 | 14.73391 | 120.86199 | 7002 ft | 149 kts | 134° |
| 2026-05-05 09:20 | 14.72635 | 120.86932 | 7005 ft | 150 kts | 134° |
| 2026-05-05 09:20 | 14.71874 | 120.87673 | 7003 ft | 151 kts | 135° |
| 2026-05-05 09:21 | 14.71107 | 120.88402 | 6999 ft | 148 kts | 135° |
| 2026-05-05 09:21 | 14.70250 | 120.88997 | 6995 ft | 148 kts | 147° |
| 2026-05-05 09:21 | 14.69402 | 120.89565 | 6999 ft | 147 kts | 142° |
| 2026-05-05 09:21 | 14.68557 | 120.90154 | 6990 ft | 147 kts | 143° |
| 2026-05-05 09:22 | 14.67703 | 120.90727 | 6994 ft | 146 kts | 143° |
| 2026-05-05 09:22 | 14.66853 | 120.91304 | 6990 ft | 146 kts | 144° |
| 2026-05-05 09:22 | 14.65994 | 120.91883 | 7004 ft | 150 kts | 143° |
| 2026-05-05 09:22 | 14.65111 | 120.92481 | 7003 ft | 152 kts | 144° |
| 2026-05-05 09:23 | 14.64227 | 120.93081 | 6982 ft | 152 kts | 143° |
| 2026-05-05 09:23 | 14.63348 | 120.93673 | 6805 ft | 149 kts | 144° |
| 2026-05-05 09:23 | 14.62502 | 120.94245 | 6615 ft | 146 kts | 143° |
| 2026-05-05 09:23 | 14.61636 | 120.94815 | 6420 ft | 146 kts | 150° |
| 2026-05-05 09:24 | 14.60975 | 120.94955 | 6290 ft | 150 kts | 178° |
| 2026-05-05 09:25 | 14.59646 | 120.91777 | 5872 ft | 146 kts | 318° |
| 2026-05-05 09:25 | 14.60545 | 120.90748 | 5781 ft | 145 kts | 311° |
| 2026-05-05 09:25 | 14.61201 | 120.89958 | 5712 ft | 144 kts | 315° |
| 2026-05-05 09:25 | 14.61867 | 120.89178 | 5637 ft | 145 kts | 313° |
| 2026-05-05 09:26 | 14.62526 | 120.88384 | 5566 ft | 148 kts | 314° |
| 2026-05-05 09:26 | 14.62984 | 120.87841 | 5547 ft | 153 kts | 313° |
| 2026-05-05 09:26 | 14.63685 | 120.86999 | 5519 ft | 156 kts | 313° |
| 2026-05-05 09:26 | 14.64642 | 120.85865 | 5482 ft | 157 kts | 313° |
| 2026-05-05 09:27 | 14.65360 | 120.85008 | 5458 ft | 158 kts | 313° |
| 2026-05-05 09:27 | 14.66066 | 120.84158 | 5449 ft | 158 kts | 313° |
| 2026-05-05 09:27 | 14.66784 | 120.83296 | 5430 ft | 158 kts | 313° |
| 2026-05-05 09:27 | 14.67506 | 120.82438 | 5403 ft | 158 kts | 313° |
| 2026-05-05 09:28 | 14.68227 | 120.81578 | 5331 ft | 160 kts | 314° |
| 2026-05-05 09:28 | 14.68784 | 120.80596 | 5137 ft | 162 kts | 281° |
| 2026-05-05 09:28 | 14.68533 | 120.79500 | 4930 ft | 157 kts | 233° |
| 2026-05-05 09:28 | 14.67699 | 120.78840 | 4730 ft | 148 kts | 194° |
| 2026-05-05 09:29 | 14.66715 | 120.78858 | 4542 ft | 140 kts | 158° |
| 2026-05-05 09:29 | 14.65960 | 120.79423 | 4358 ft | 134 kts | 123° |
| 2026-05-05 09:29 | 14.65658 | 120.80305 | 4184 ft | 132 kts | 92° |
| 2026-05-05 09:29 | 14.65713 | 120.80937 | 4069 ft | 131 kts | 82° |
| 2026-05-05 09:30 | 14.65785 | 120.82188 | 3836 ft | 131 kts | 88° |
| 2026-05-05 09:30 | 14.65860 | 120.83127 | 3663 ft | 131 kts | 85° |
| 2026-05-05 09:30 | 14.65885 | 120.84068 | 3477 ft | 130 kts | 99° |
| 2026-05-05 09:30 | 14.65427 | 120.84862 | 3313 ft | 132 kts | 133° |
| 2026-05-05 09:31 | 14.64822 | 120.85559 | 3141 ft | 130 kts | 126° |
| 2026-05-05 09:31 | 14.64244 | 120.86280 | 2959 ft | 131 kts | 129° |
| 2026-05-05 09:31 | 14.63649 | 120.86981 | 2900 ft | 126 kts | 128° |
| 2026-05-05 09:31 | 14.63280 | 120.87429 | 2896 ft | 122 kts | 129° |
| 2026-05-05 09:32 | 14.62755 | 120.88035 | 2925 ft | 109 kts | 128° |
| 2026-05-05 09:32 | 14.62260 | 120.88639 | 2910 ft | 110 kts | 128° |
| 2026-05-05 09:32 | 14.61593 | 120.89416 | 2909 ft | 106 kts | 127° |
| 2026-05-05 09:32 | 14.61110 | 120.89991 | 2905 ft | 106 kts | 127° |
| 2026-05-05 09:33 | 14.60632 | 120.90556 | 2902 ft | 106 kts | 127° |
| 2026-05-05 09:33 | 14.60141 | 120.91139 | 2908 ft | 108 kts | 127° |
| 2026-05-05 09:33 | 14.59639 | 120.91727 | 2909 ft | 110 kts | 126° |
| 2026-05-05 09:33 | 14.59305 | 120.92132 | 2907 ft | 110 kts | 127° |
| 2026-05-05 09:34 | 14.58629 | 120.92922 | 2911 ft | 110 kts | 126° |
| 2026-05-05 09:34 | 14.58128 | 120.93522 | 2909 ft | 111 kts | 127° |
| 2026-05-05 09:34 | 14.57619 | 120.94134 | 2859 ft | 110 kts | 122° |
| 2026-05-05 09:34 | 14.57364 | 120.94575 | 2850 ft | 104 kts | 113° |
| 2026-05-05 09:35 | 14.57046 | 120.95154 | 2794 ft | 86 kts | 120° |
| 2026-05-05 09:35 | 14.56344 | 120.96189 | 2629 ft | 91 kts | 124° |
| 2026-05-05 09:35 | 14.55893 | 120.96663 | 2478 ft | 91 kts | 123° |
| 2026-05-05 09:36 | 14.55622 | 120.96997 | 2373 ft | 94 kts | 124° |